Time;durP1;ratioP1;P1;durP2;ratioP2;P2;SDS_P1;SDS_P2;PMS_P1;PMS_P2;Temp;Humidity;BMP_temperature;BMP_pressure;BME280_temperature;BME280_humidity;BME280_pressure;Samples;Min_cycle;Max_cycle;Signal;HPM_P1;HPM_P2
2024/04/08 00:01:04;;;;;;;1.20;0.77;;;17.80;62.30;;;;;;6170363;23;20139;-80
2024/04/08 00:03:30;;;;;;;1.85;0.82;;;17.80;62.20;;;;;;6170283;23;20140;-79
2024/04/08 00:05:57;;;;;;;0.88;0.63;;;17.80;62.30;;;;;;6120852;23;20255;-79
2024/04/08 00:08:28;;;;;;;0.95;0.80;;;17.80;62.20;;;;;;6146165;23;20134;-79
2024/04/08 00:10:57;;;;;;;0.80;0.63;;;17.80;62.20;;;;;;6121384;23;20156;-80
2024/04/08 00:13:25;;;;;;;0.77;0.70;;;17.80;62.20;;;;;;6146050;23;20226;-79
2024/04/08 00:16:00;;;;;;;0.88;0.70;;;17.80;62.20;;;;;;6121382;23;20155;-79
2024/04/08 00:18:34;;;;;;;2.88;0.88;;;17.80;62.40;;;;;;6122223;23;20157;-79
2024/04/08 00:21:03;;;;;;;1.15;0.95;;;17.80;62.00;;;;;;6144978;23;20527;-79
2024/04/08 00:23:32;;;;;;;1.50;0.70;;;17.70;62.20;;;;;;6145009;23;20159;-80
2024/04/08 00:26:03;;;;;;;0.90;0.70;;;17.80;62.00;;;;;;6145874;23;20167;-80
2024/04/08 00:28:29;;;;;;;1.30;0.80;;;17.80;62.10;;;;;;6144973;23;20207;-79
2024/04/08 00:31:02;;;;;;;1.67;0.93;;;17.80;62.20;;;;;;6120781;23;20180;-80
2024/04/08 00:33:33;;;;;;;1.42;0.90;;;17.70;62.10;;;;;;6120948;23;20191;-79
2024/04/08 00:35:59;;;;;;;0.95;0.77;;;17.80;62.00;;;;;;6145785;23;20218;-79
2024/04/08 00:38:25;;;;;;;1.02;0.70;;;17.80;62.10;;;;;;6170622;23;20136;-79
2024/04/08 00:41:00;;;;;;;0.93;0.60;;;17.70;62.30;;;;;;6169649;23;20576;-79
2024/04/08 00:43:27;;;;;;;1.20;0.82;;;17.80;62.30;;;;;;6169931;23;20127;-80
2024/04/08 00:45:57;;;;;;;1.10;0.80;;;17.70;62.30;;;;;;6120309;23;20199;-80
2024/04/08 00:48:23;;;;;;;1.67;0.77;;;17.70;62.20;;;;;;6096601;23;20554;-80
2024/04/08 00:50:49;;;;;;;1.45;0.88;;;17.70;62.30;;;;;;6121029;23;20175;-80
2024/04/08 00:53:15;;;;;;;1.35;0.80;;;17.80;62.50;;;;;;6144611;23;20136;-80
2024/04/08 00:55:46;;;;;;;1.10;0.85;;;17.70;62.30;;;;;;6169802;23;20195;-80
2024/04/08 00:58:16;;;;;;;1.25;0.77;;;17.80;62.20;;;;;;6096327;23;20292;-80
2024/04/08 01:00:44;;;;;;;1.98;0.80;;;17.70;62.40;;;;;;6096673;23;20162;-79
2024/04/08 01:03:13;;;;;;;2.13;0.90;;;17.70;62.30;;;;;;6144939;23;20445;-79
2024/04/08 01:05:47;;;;;;;1.15;0.80;;;17.70;62.30;;;;;;6138829;23;20256;-79
2024/04/08 01:08:20;;;;;;;0.73;0.70;;;17.70;62.30;;;;;;6114673;23;20148;-80
2024/04/08 01:10:46;;;;;;;1.00;0.70;;;17.70;62.40;;;;;;6090693;23;20210;-80
2024/04/08 01:13:12;;;;;;;0.80;0.80;;;17.80;62.40;;;;;;6114911;23;20132;-80
2024/04/08 01:15:38;;;;;;;1.45;0.93;;;17.70;62.20;;;;;;6090761;23;20156;-80
2024/04/08 01:18:10;;;;;;;1.83;0.80;;;17.70;62.20;;;;;;6115040;23;20156;-80
2024/04/08 01:20:37;;;;;;;1.45;0.82;;;17.70;62.30;;;;;;6065497;23;20152;-80
2024/04/08 01:23:03;;;;;;;1.00;0.80;;;17.70;62.50;;;;;;6089979;23;20250;-79
2024/04/08 01:25:29;;;;;;;2.15;1.17;;;17.70;62.50;;;;;;6090685;23;20176;-80
2024/04/08 01:28:01;;;;;;;0.85;0.70;;;17.70;62.50;;;;;;6056891;23;20618;-79
2024/04/08 01:30:30;;;;;;;0.77;0.63;;;17.70;62.50;;;;;;6032779;23;20230;-80
2024/04/08 01:32:58;;;;;;;2.53;0.90;;;17.70;62.50;;;;;;6056766;23;20161;-80
2024/04/08 01:35:24;;;;;;;1.38;0.85;;;17.70;62.60;;;;;;6057110;23;20188;-80
2024/04/08 01:37:50;;;;;;;1.20;0.80;;;17.70;62.60;;;;;;6033248;23;20146;-80
2024/04/08 01:40:16;;;;;;;0.98;0.70;;;17.70;62.50;;;;;;6032116;23;20238;-79
2024/04/08 01:42:45;;;;;;;1.17;0.80;;;17.70;62.50;;;;;;6090959;23;20672;-79
2024/04/08 01:45:12;;;;;;;1.17;0.80;;;17.70;62.40;;;;;;6084421;23;20193;-80
2024/04/08 01:47:40;;;;;;;0.90;0.70;;;17.70;62.40;;;;;;6086172;23;20144;-79
2024/04/08 01:50:10;;;;;;;0.93;0.80;;;17.70;62.40;;;;;;6085435;23;20137;-79
2024/04/08 01:52:37;;;;;;;2.20;0.90;;;17.70;62.50;;;;;;6061340;23;20163;-80
2024/04/08 01:55:12;;;;;;;1.00;0.90;;;17.60;62.50;;;;;;6085230;23;20206;-79
2024/04/08 01:57:49;;;;;;;0.75;0.73;;;17.60;62.40;;;;;;6085656;23;20145;-79
2024/04/08 02:00:16;;;;;;;1.15;0.82;;;17.70;62.50;;;;;;6085857;23;20156;-80
2024/04/08 02:02:44;;;;;;;0.80;0.73;;;17.60;62.20;;;;;;6086000;23;20161;-80
2024/04/08 02:05:12;;;;;;;1.67;0.80;;;17.70;62.30;;;;;;6110925;23;20162;-80
2024/04/08 02:07:39;;;;;;;0.57;0.57;;;17.60;62.60;;;;;;6120522;23;20207;-79
2024/04/08 02:10:06;;;;;;;1.58;0.80;;;17.70;62.50;;;;;;6144471;23;20162;-79
2024/04/08 02:12:31;;;;;;;1.23;0.90;;;17.70;62.30;;;;;;6120122;23;20140;-80
2024/04/08 02:14:58;;;;;;;1.25;0.95;;;17.70;62.00;;;;;;6119741;23;20147;-79
2024/04/08 02:17:25;;;;;;;2.10;0.88;;;17.70;62.30;;;;;;6169083;23;20132;-79
2024/04/08 02:19:56;;;;;;;0.98;0.85;;;17.70;62.20;;;;;;6144192;23;20199;-79
2024/04/08 02:22:24;;;;;;;1.33;0.75;;;17.60;62.40;;;;;;6094721;23;20237;-79
2024/04/08 02:24:53;;;;;;;2.17;0.90;;;17.70;62.50;;;;;;6144531;23;20166;-80
2024/04/08 02:27:19;;;;;;;1.10;0.75;;;17.70;62.30;;;;;;6060149;23;20196;-79
2024/04/08 02:29:46;;;;;;;1.25;0.70;;;17.70;62.50;;;;;;6085418;23;20544;-79
2024/04/08 02:32:14;;;;;;;0.90;0.80;;;17.70;62.40;;;;;;6037404;23;20268;-79
2024/04/08 02:34:42;;;;;;;1.42;1.00;;;17.60;62.30;;;;;;6036275;23;20149;-80
2024/04/08 02:37:08;;;;;;;1.40;1.08;;;17.70;62.40;;;;;;6026979;23;20158;-79
2024/04/08 02:39:34;;;;;;;1.70;1.10;;;17.60;62.50;;;;;;6027999;23;20536;-79
2024/04/08 02:42:05;;;;;;;2.80;1.10;;;17.60;62.40;;;;;;6028431;23;20178;-79
2024/04/08 02:44:32;;;;;;;1.90;0.93;;;17.70;62.30;;;;;;6027162;23;20153;-80
2024/04/08 02:46:58;;;;;;;1.27;0.65;;;17.60;62.40;;;;;;5999809;23;20526;-80
2024/04/08 02:49:32;;;;;;;2.05;0.98;;;17.60;62.40;;;;;;5975677;23;20162;-79
2024/04/08 02:52:00;;;;;;;0.93;0.90;;;17.60;62.60;;;;;;6000095;23;20135;-79
2024/04/08 02:54:27;;;;;;;1.20;1.02;;;17.60;62.50;;;;;;5998112;23;20585;-79
2024/04/08 02:56:56;;;;;;;1.27;0.77;;;17.50;62.50;;;;;;5976018;23;20159;-79
2024/04/08 02:59:25;;;;;;;1.75;0.98;;;17.60;62.50;;;;;;6029319;23;20153;-79
2024/04/08 03:01:52;;;;;;;1.83;0.90;;;17.60;62.30;;;;;;6032737;23;20165;-79
2024/04/08 03:04:18;;;;;;;1.02;0.80;;;17.60;62.50;;;;;;6032876;23;20161;-79
2024/04/08 03:06:44;;;;;;;1.48;0.90;;;17.60;62.50;;;;;;6032183;23;20185;-80
2024/04/08 03:09:13;;;;;;;2.35;0.80;;;17.60;62.50;;;;;;6056465;23;20165;-79
2024/04/08 03:11:41;;;;;;;0.65;0.65;;;17.60;62.50;;;;;;6056125;23;20205;-79
2024/04/08 03:14:13;;;;;;;0.85;0.70;;;17.60;62.30;;;;;;6056054;23;20177;-79
2024/04/08 03:16:44;;;;;;;1.00;0.90;;;17.60;62.50;;;;;;6007337;23;20185;-80
2024/04/08 03:19:11;;;;;;;1.10;0.90;;;17.60;62.50;;;;;;6079447;23;20209;-79
2024/04/08 03:21:37;;;;;;;1.58;0.93;;;17.60;62.50;;;;;;6031831;23;20269;-79
2024/04/08 03:24:07;;;;;;;0.80;0.80;;;17.70;62.40;;;;;;6079790;23;20173;-80
2024/04/08 03:26:35;;;;;;;2.28;1.00;;;17.60;62.10;;;;;;6031134;23;20191;-79
2024/04/08 03:29:04;;;;;;;1.35;1.00;;;17.60;62.30;;;;;;6030748;23;20217;-80
2024/04/08 03:31:30;;;;;;;1.63;1.02;;;17.50;62.30;;;;;;6032104;23;20240;-79
2024/04/08 03:33:57;;;;;;;1.02;0.70;;;17.60;62.40;;;;;;6079584;23;20227;-80
2024/04/08 03:36:24;;;;;;;1.50;0.80;;;17.60;62.60;;;;;;6095819;23;20151;-79
2024/04/08 03:38:54;;;;;;;1.02;0.88;;;17.60;62.60;;;;;;6096174;23;20213;-80
2024/04/08 03:41:30;;;;;;;1.30;0.80;;;17.60;62.70;;;;;;6070421;23;20166;-79
2024/04/08 03:43:58;;;;;;;1.45;0.88;;;17.60;62.60;;;;;;6094422;23;20238;-79
2024/04/08 03:46:25;;;;;;;0.93;0.82;;;17.50;62.60;;;;;;6138827;23;20187;-80
2024/04/08 03:48:51;;;;;;;1.50;0.80;;;17.50;62.30;;;;;;6120025;23;20162;-80
2024/04/08 03:51:25;;;;;;;0.70;0.70;;;17.50;62.70;;;;;;6168751;23;20203;-80
2024/04/08 03:53:55;;;;;;;1.35;0.70;;;17.60;62.50;;;;;;6095273;23;20154;-80
2024/04/08 03:56:22;;;;;;;1.30;0.80;;;17.60;62.60;;;;;;6144797;23;20139;-79
2024/04/08 03:58:48;;;;;;;1.98;0.88;;;17.50;62.60;;;;;;6143671;23;20156;-79
2024/04/08 04:01:13;;;;;;;1.25;0.85;;;17.60;62.60;;;;;;6143665;23;20186;-79
2024/04/08 04:03:39;;;;;;;1.80;0.90;;;17.50;62.60;;;;;;6119651;23;20147;-79
2024/04/08 04:06:08;;;;;;;0.93;0.80;;;17.50;62.50;;;;;;6119719;23;20183;-79
2024/04/08 04:08:35;;;;;;;1.20;0.85;;;17.60;62.50;;;;;;6119289;23;20171;-80
2024/04/08 04:11:02;;;;;;;1.23;0.90;;;17.50;62.60;;;;;;6119654;23;20144;-80
2024/04/08 04:13:31;;;;;;;1.75;0.70;;;17.50;62.50;;;;;;6118798;23;20155;-79
2024/04/08 04:15:57;;;;;;;1.38;0.85;;;17.50;62.60;;;;;;6119440;23;20156;-79
2024/04/08 04:18:26;;;;;;;0.93;0.75;;;17.50;62.50;;;;;;6119288;23;20607;-79
2024/04/08 04:20:52;;;;;;;1.80;0.98;;;17.50;62.50;;;;;;6143757;23;20160;-79
2024/04/08 04:23:22;;;;;;;1.35;0.90;;;17.60;62.20;;;;;;6119372;23;20163;-80
2024/04/08 04:25:51;;;;;;;0.98;0.82;;;17.60;62.50;;;;;;6108819;23;20240;-80
2024/04/08 04:28:17;;;;;;;1.15;0.90;;;17.50;62.30;;;;;;6084238;23;20160;-80
2024/04/08 04:30:55;;;;;;;1.25;0.90;;;17.60;62.50;;;;;;6060163;23;20157;-79
2024/04/08 04:33:26;;;;;;;1.58;0.70;;;17.60;62.50;;;;;;6061067;23;20161;-79
2024/04/08 04:35:56;;;;;;;1.27;0.85;;;17.50;62.60;;;;;;6085635;23;20189;-79
2024/04/08 04:38:23;;;;;;;1.92;0.90;;;17.50;62.30;;;;;;6062437;23;20212;-79
2024/04/08 04:40:59;;;;;;;0.85;0.80;;;17.50;62.30;;;;;;6062516;23;20164;-79
2024/04/08 04:43:29;;;;;;;1.27;0.80;;;17.60;62.50;;;;;;6110081;23;20148;-79
2024/04/08 04:45:55;;;;;;;1.98;1.02;;;17.50;62.60;;;;;;6036874;23;20209;-80
2024/04/08 04:48:21;;;;;;;0.88;0.70;;;17.50;62.60;;;;;;6061364;23;20157;-80
2024/04/08 04:50:48;;;;;;;1.45;1.00;;;17.50;62.70;;;;;;6062061;23;20165;-80
2024/04/08 04:53:14;;;;;;;1.00;0.80;;;17.50;62.60;;;;;;6086507;23;20159;-79
2024/04/08 04:55:53;;;;;;;1.70;0.80;;;17.50;62.40;;;;;;6064107;23;20137;-79
2024/04/08 04:58:23;;;;;;;2.08;1.00;;;17.60;62.30;;;;;;6145175;23;20161;-79
2024/04/08 05:00:49;;;;;;;1.17;1.02;;;17.60;62.50;;;;;;6169360;23;20634;-80
2024/04/08 05:03:16;;;;;;;0.90;0.77;;;17.50;62.50;;;;;;6120077;23;20151;-80
2024/04/08 05:05:41;;;;;;;1.10;0.90;;;17.50;62.50;;;;;;6145618;23;20169;-79
2024/04/08 05:08:11;;;;;;;0.98;0.88;;;17.60;62.60;;;;;;6120947;23;20151;-79
2024/04/08 05:10:37;;;;;;;2.05;1.00;;;17.50;63.40;;;;;;6145023;23;20148;-80
2024/04/08 05:13:04;;;;;;;1.67;0.93;;;17.60;62.60;;;;;;6119769;23;20147;-79
2024/04/08 05:15:31;;;;;;;1.63;0.95;;;17.50;62.60;;;;;;6145167;23;20162;-80
2024/04/08 05:17:57;;;;;;;1.77;0.90;;;17.50;62.50;;;;;;6120847;23;20452;-79
2024/04/08 05:20:28;;;;;;;0.75;0.70;;;17.50;62.60;;;;;;6169587;23;20139;-79
2024/04/08 05:22:54;;;;;;;1.02;0.90;;;17.60;62.50;;;;;;6145445;23;20618;-80
2024/04/08 05:25:20;;;;;;;2.80;1.15;;;17.60;62.50;;;;;;6144684;23;20132;-79
2024/04/08 05:27:48;;;;;;;2.17;0.90;;;17.50;62.40;;;;;;6169333;23;20167;-79
2024/04/08 05:30:16;;;;;;;1.35;0.80;;;17.50;62.30;;;;;;6121405;23;20144;-79
2024/04/08 05:32:42;;;;;;;1.58;0.90;;;17.60;62.50;;;;;;6169035;23;20132;-79
2024/04/08 05:35:10;;;;;;;1.08;0.70;;;17.50;62.30;;;;;;6143945;23;20132;-80
2024/04/08 05:37:38;;;;;;;1.48;0.80;;;17.60;62.30;;;;;;6169780;23;20145;-79
2024/04/08 05:40:09;;;;;;;1.83;1.10;;;17.60;62.10;;;;;;6168895;23;20163;-79
2024/04/08 05:42:35;;;;;;;0.98;0.88;;;17.60;62.10;;;;;;6145161;23;20152;-80
2024/04/08 05:45:01;;;;;;;1.65;1.17;;;17.60;62.00;;;;;;6099977;23;20203;-79
2024/04/08 05:47:28;;;;;;;1.52;1.00;;;17.70;61.90;;;;;;6033057;23;20181;-80
2024/04/08 05:49:58;;;;;;;1.23;1.00;;;17.60;62.00;;;;;;6032671;23;20197;-79
2024/04/08 05:52:34;;;;;;;0.98;0.75;;;17.70;62.00;;;;;;6008584;23;20149;-79
2024/04/08 05:55:01;;;;;;;1.83;1.00;;;17.60;62.10;;;;;;6055043;23;20133;-79
2024/04/08 05:57:26;;;;;;;1.65;0.70;;;17.70;62.00;;;;;;6033655;23;20171;-79
2024/04/08 05:59:54;;;;;;;1.20;0.85;;;17.70;62.00;;;;;;6032530;23;20157;-80
2024/04/08 06:02:21;;;;;;;0.70;0.70;;;17.70;61.80;;;;;;6032205;23;20145;-80
2024/04/08 06:04:49;;;;;;;1.20;0.90;;;17.70;61.80;;;;;;6032810;23;20188;-80
2024/04/08 06:07:15;;;;;;;2.65;1.10;;;17.70;61.60;;;;;;6055512;23;20181;-80
2024/04/08 06:09:50;;;;;;;2.58;0.88;;;17.80;61.70;;;;;;6055657;23;20138;-80
2024/04/08 06:12:19;;;;;;;1.73;0.95;;;17.80;61.60;;;;;;6032194;23;20165;-79
2024/04/08 06:14:46;;;;;;;1.67;0.90;;;17.80;61.50;;;;;;6032637;23;20681;-79
2024/04/08 08:05:33;;;;;;;1.80;0.80;;;18.40;59.40;;;;;;6547326;21;1423772;-80
2024/04/08 08:08:00;;;;;;;1.00;0.70;;;18.30;59.60;;;;;;6506224;21;20697;-79
2024/04/08 08:10:28;;;;;;;2.40;0.90;;;18.40;60.20;;;;;;6460113;21;20261;-80
2024/04/08 08:12:57;;;;;;;4.55;0.90;;;18.50;59.40;;;;;;6506099;21;20239;-80
2024/04/08 08:15:24;;;;;;;1.35;0.70;;;18.40;59.80;;;;;;6462983;21;20265;-79
2024/04/08 08:17:50;;;;;;;2.78;1.08;;;18.50;59.40;;;;;;6501588;21;20256;-80
2024/04/08 08:20:16;;;;;;;2.80;0.80;;;18.40;59.40;;;;;;6587597;21;20273;-80
2024/04/08 08:22:44;;;;;;;1.33;0.60;;;18.50;59.20;;;;;;6459747;21;20224;-79
2024/04/08 08:25:12;;;;;;;1.13;0.70;;;18.40;59.20;;;;;;6501372;21;20242;-81
2024/04/08 08:27:39;;;;;;;3.63;0.77;;;18.40;59.30;;;;;;6502700;21;20564;-80
2024/04/08 08:30:06;;;;;;;1.42;0.70;;;18.50;59.10;;;;;;6502495;21;20233;-80
2024/04/08 08:32:36;;;;;;;2.60;0.80;;;18.50;59.10;;;;;;6505687;21;20244;-80
2024/04/08 08:35:02;;;;;;;2.75;0.93;;;18.40;59.40;;;;;;6462450;21;20221;-80
2024/04/08 08:37:31;;;;;;;3.80;0.95;;;18.50;59.20;;;;;;6462457;21;20284;-80
2024/04/08 08:39:57;;;;;;;5.70;0.70;;;18.50;59.30;;;;;;6464361;21;20637;-80
2024/04/08 08:42:30;;;;;;;4.43;1.08;;;18.40;59.10;;;;;;6503025;21;20213;-80
2024/04/08 08:45:03;;;;;;;3.97;0.82;;;18.50;59.00;;;;;;6506040;21;20318;-80
2024/04/08 08:47:29;;;;;;;4.93;0.82;;;18.60;59.30;;;;;;6504241;21;20217;-80
2024/04/08 08:49:55;;;;;;;2.10;0.75;;;18.50;59.30;;;;;;6503912;21;20300;-80
2024/04/08 08:52:21;;;;;;;4.53;1.00;;;18.50;59.20;;;;;;6500968;21;20692;-81
2024/04/08 08:54:53;;;;;;;5.25;0.85;;;18.50;59.90;;;;;;6458587;21;20217;-79
2024/04/08 08:57:19;;;;;;;2.95;0.75;;;18.40;59.70;;;;;;6545543;21;20265;-80
2024/04/08 08:59:54;;;;;;;3.17;1.00;;;18.40;59.60;;;;;;6505566;21;20213;-79
2024/04/08 09:02:22;;;;;;;4.28;1.00;;;18.50;59.60;;;;;;6504527;21;20212;-80
2024/04/08 09:04:48;;;;;;;3.33;0.90;;;18.50;59.80;;;;;;6465133;21;20268;-80
2024/04/08 09:07:16;;;;;;;6.00;1.00;;;18.40;59.70;;;;;;6462824;21;20221;-79
2024/04/08 09:09:53;;;;;;;4.43;0.95;;;18.50;59.70;;;;;;6505941;21;20209;-79
2024/04/08 09:12:32;;;;;;;5.47;1.00;;;18.50;59.80;;;;;;6461106;21;20220;-79
2024/04/08 09:15:03;;;;;;;6.18;1.00;;;18.50;59.70;;;;;;6464348;21;20220;-79
2024/04/08 09:18:06;;;;;;;4.63;1.02;;;18.50;59.80;;;;;;6505491;21;20217;-79
2024/04/08 09:20:36;;;;;;;3.60;1.00;;;18.50;59.90;;;;;;6345444;22;20221;-79
2024/04/08 09:23:20;;;;;;;6.40;1.10;;;18.50;60.00;;;;;;6265238;22;20284;-79
2024/04/08 09:25:48;;;;;;;3.53;0.88;;;18.50;60.10;;;;;;6345205;22;20225;-80
2024/04/08 09:28:16;;;;;;;3.88;1.10;;;18.50;60.00;;;;;;6305245;22;20332;-79
2024/04/08 09:30:44;;;;;;;5.47;1.20;;;18.50;60.00;;;;;;6305473;22;20673;-79
2024/04/08 09:33:12;;;;;;;5.03;1.02;;;18.40;60.10;;;;;;6305031;22;20248;-80
2024/04/08 09:35:44;;;;;;;2.55;0.90;;;18.40;61.20;;;;;;6265694;22;20261;-79
2024/04/08 09:38:13;;;;;;;5.82;0.88;;;18.40;60.40;;;;;;6304235;22;20225;-79
2024/04/08 09:40:41;;;;;;;4.07;0.80;;;18.50;60.10;;;;;;6264876;22;20226;-79
2024/04/08 09:43:09;;;;;;;4.00;0.75;;;18.50;59.90;;;;;;6264996;22;20221;-79
2024/04/08 09:45:35;;;;;;;2.53;0.60;;;18.50;60.00;;;;;;6265998;22;20226;-79
2024/04/08 09:48:01;;;;;;;2.08;1.00;;;18.60;59.80;;;;;;6305672;22;20259;-79
2024/04/08 09:50:28;;;;;;;2.22;0.80;;;18.60;59.70;;;;;;6420477;21;20268;-80
2024/04/08 09:52:55;;;;;;;2.70;0.90;;;18.60;59.80;;;;;;6506293;21;20217;-79
2024/04/08 09:55:27;;;;;;;2.13;0.70;;;18.60;59.80;;;;;;6463064;21;20216;-79
2024/04/08 09:57:56;;;;;;;3.13;0.80;;;18.60;59.80;;;;;;6506413;21;20213;-79
2024/04/08 10:00:29;;;;;;;2.60;0.70;;;18.60;59.80;;;;;;6505581;21;20328;-80
2024/04/08 10:02:55;;;;;;;3.25;0.90;;;18.50;59.80;;;;;;6443794;22;20219;-79
2024/04/08 10:05:21;;;;;;;2.75;0.70;;;18.60;59.80;;;;;;6402722;22;20255;-79
2024/04/08 10:07:49;;;;;;;3.05;0.93;;;18.60;59.80;;;;;;6444718;22;20280;-79
2024/04/08 10:10:18;;;;;;;0.90;0.70;;;18.60;59.70;;;;;;6446479;22;20259;-80
2024/04/08 10:12:44;;;;;;;2.20;0.73;;;18.60;59.70;;;;;;6403429;22;20223;-80
2024/04/08 10:15:17;;;;;;;2.03;0.70;;;18.50;59.80;;;;;;6403151;22;20287;-80
2024/04/08 10:17:44;;;;;;;1.27;0.70;;;18.60;59.70;;;;;;6402475;22;20270;-79
2024/04/08 10:20:13;;;;;;;3.15;0.85;;;18.70;59.50;;;;;;6444201;22;20211;-80
2024/04/08 10:22:43;;;;;;;4.50;0.75;;;18.70;59.50;;;;;;6445413;22;20227;-79
2024/04/08 10:25:30;;;;;;;4.35;0.80;;;18.70;59.50;;;;;;6486907;22;20333;-79
2024/04/08 10:28:03;;;;;;;2.08;0.80;;;18.60;59.60;;;;;;6486614;22;20716;-79
2024/04/08 10:30:33;;;;;;;3.00;0.60;;;18.60;59.80;;;;;;6402450;22;20219;-80
2024/04/08 10:33:08;;;;;;;3.00;0.80;;;18.60;59.80;;;;;;6414824;21;20223;-79
2024/04/08 10:35:34;;;;;;;2.28;0.70;;;18.60;59.90;;;;;;6508197;21;20212;-79
2024/04/08 10:37:59;;;;;;;2.67;0.80;;;18.60;59.80;;;;;;6462320;21;20264;-81
2024/04/08 10:40:26;;;;;;;2.75;0.60;;;18.60;59.80;;;;;;6505136;21;20395;-80
2024/04/08 10:42:52;;;;;;;2.28;0.88;;;18.60;59.60;;;;;;6463777;21;20243;-79
2024/04/08 10:45:23;;;;;;;0.70;0.60;;;18.60;59.80;;;;;;6462620;21;20245;-80
2024/04/08 10:47:54;;;;;;;2.45;0.70;;;18.60;60.00;;;;;;6506307;21;20319;-80
2024/04/08 10:50:20;;;;;;;1.30;0.80;;;18.50;60.00;;;;;;6465727;21;20221;-79
2024/04/08 10:52:46;;;;;;;2.97;0.70;;;18.40;60.10;;;;;;6505806;21;20283;-79
2024/04/08 10:55:11;;;;;;;2.60;0.73;;;18.50;60.10;;;;;;6547336;21;20244;-79
2024/04/08 10:57:37;;;;;;;2.83;0.95;;;18.50;60.10;;;;;;6505568;21;20217;-79
2024/04/08 11:00:05;;;;;;;1.90;0.70;;;18.50;60.10;;;;;;6504842;21;20228;-80
2024/04/08 11:02:32;;;;;;;4.68;0.85;;;18.50;60.00;;;;;;6457655;21;20213;-80
2024/04/08 11:05:01;;;;;;;3.92;0.77;;;18.60;60.00;;;;;;6543725;21;20267;-80
2024/04/08 11:07:35;;;;;;;0.95;0.50;;;18.60;60.00;;;;;;6543769;21;20711;-80
2024/04/08 11:10:04;;;;;;;2.35;0.80;;;18.60;59.90;;;;;;6544419;21;20260;-81
2024/04/08 11:12:30;;;;;;;1.80;0.70;;;18.60;60.00;;;;;;6540744;21;20217;-82
2024/04/08 11:14:59;;;;;;;2.45;0.70;;;18.60;60.00;;;;;;6499463;21;20525;-81
2024/04/08 11:17:26;;;;;;;2.20;0.73;;;18.60;60.00;;;;;;6498106;21;20221;-80
2024/04/08 11:19:56;;;;;;;3.13;0.95;;;18.60;59.80;;;;;;6459612;21;20229;-81
2024/04/08 11:22:22;;;;;;;3.60;0.75;;;18.60;59.80;;;;;;6498461;21;20280;-80
2024/04/08 11:24:49;;;;;;;1.45;0.60;;;18.70;59.80;;;;;;6459789;21;20213;-81
2024/04/08 11:27:16;;;;;;;3.90;0.57;;;18.60;59.90;;;;;;6460704;21;20251;-82
2024/04/08 11:29:44;;;;;;;3.22;1.00;;;18.50;59.90;;;;;;6509827;21;20589;-81
2024/04/08 11:32:13;;;;;;;5.25;0.80;;;18.60;59.90;;;;;;6509187;21;20247;-80
2024/04/08 11:34:42;;;;;;;1.30;0.70;;;18.70;59.80;;;;;;6511422;21;20213;-81
2024/04/08 11:37:10;;;;;;;2.15;0.75;;;18.70;59.60;;;;;;6466513;21;20217;-81
2024/04/08 11:39:37;;;;;;;2.05;0.75;;;18.70;59.60;;;;;;6464828;21;20248;-81
2024/04/08 11:42:03;;;;;;;2.58;0.80;;;18.70;59.80;;;;;;6508434;21;20269;-81
2024/04/08 11:44:31;;;;;;;2.05;0.82;;;18.60;59.80;;;;;;6551022;21;20229;-81
2024/04/08 11:47:00;;;;;;;1.83;0.70;;;18.70;59.80;;;;;;6465327;21;20221;-81
2024/04/08 11:49:27;;;;;;;1.80;0.70;;;18.70;59.80;;;;;;6507083;21;20229;-82
2024/04/08 11:55:12;;;;;;;1.25;0.70;;;18.70;59.50;;;;;;6284462;22;20282;-81
2024/04/08 11:57:37;;;;;;;1.13;0.70;;;18.70;59.40;;;;;;6246545;22;20228;-81
2024/04/08 12:00:16;;;;;;;1.92;0.60;;;18.70;59.50;;;;;;6246183;22;20231;-81
2024/04/08 12:02:46;;;;;;;1.30;0.80;;;18.80;59.40;;;;;;6246588;22;20414;-82
2024/04/08 12:05:18;;;;;;;5.60;0.80;;;18.80;59.50;;;;;;6246576;22;20235;-81
2024/04/08 12:07:45;;;;;;;1.63;0.80;;;18.70;59.60;;;;;;6245952;22;20304;-81
2024/04/08 12:10:12;;;;;;;2.03;0.65;;;18.70;59.80;;;;;;6244601;22;20566;-82
2024/04/08 12:12:41;;;;;;;2.17;0.70;;;18.70;59.70;;;;;;6241797;22;20270;-81
2024/04/08 12:15:11;;;;;;;1.65;1.02;;;18.80;59.60;;;;;;6281466;22;20219;-82
2024/04/08 12:17:36;;;;;;;1.95;0.80;;;18.80;59.60;;;;;;6185602;23;20229;-81
2024/04/08 12:20:04;;;;;;;3.50;0.73;;;18.80;59.70;;;;;;6265208;22;20392;-82
2024/04/08 12:22:32;;;;;;;2.47;0.73;;;18.70;59.80;;;;;;6193663;23;20228;-81
2024/04/08 12:24:59;;;;;;;1.52;0.70;;;18.60;59.90;;;;;;6272839;22;20228;-82
2024/04/08 12:27:28;;;;;;;5.68;1.02;;;18.60;59.80;;;;;;6158539;23;20232;-81
2024/04/08 12:29:54;;;;;;;2.22;1.02;;;18.80;59.70;;;;;;6161209;23;20248;-81
2024/04/08 12:32:22;;;;;;;4.35;1.00;;;18.70;59.80;;;;;;6309262;22;20219;-82
2024/04/08 12:34:48;;;;;;;4.20;0.80;;;18.70;59.90;;;;;;6437745;22;20242;-81
2024/04/08 12:37:13;;;;;;;5.63;0.88;;;18.80;59.80;;;;;;6433343;22;20223;-81
2024/04/08 12:39:40;;;;;;;3.28;0.90;;;18.80;59.60;;;;;;6394316;22;20222;-81
2024/04/08 12:42:06;;;;;;;6.65;0.98;;;18.80;59.60;;;;;;6434947;22;20329;-81
2024/04/08 12:44:32;;;;;;;2.58;0.80;;;18.90;59.50;;;;;;6436771;22;20227;-81
2024/04/08 12:46:58;;;;;;;2.15;0.60;;;18.90;59.50;;;;;;6395174;22;20682;-81
2024/04/08 12:49:25;;;;;;;8.00;1.05;;;18.80;59.50;;;;;;6482093;21;20253;-81
2024/04/08 12:51:51;;;;;;;7.60;1.05;;;18.80;59.60;;;;;;6455763;21;20649;-81
2024/04/08 12:54:18;;;;;;;4.03;0.80;;;18.90;59.50;;;;;;6497392;21;20263;-81
2024/04/08 12:56:45;;;;;;;5.75;1.00;;;18.80;59.70;;;;;;6541666;21;20217;-80
2024/04/08 12:59:10;;;;;;;1.60;0.65;;;18.80;59.80;;;;;;6498204;21;20213;-81
2024/04/08 13:01:36;;;;;;;3.92;0.93;;;18.80;59.80;;;;;;6498565;21;20221;-81
2024/04/08 13:04:03;;;;;;;4.63;1.15;;;18.80;59.80;;;;;;6457401;21;20217;-81
2024/04/08 13:06:29;;;;;;;1.45;0.80;;;18.80;60.00;;;;;;6499309;21;20241;-81
2024/04/08 13:08:55;;;;;;;1.98;0.85;;;18.80;60.10;;;;;;6541983;21;20225;-81
2024/04/08 13:11:21;;;;;;;4.35;0.82;;;18.80;60.00;;;;;;6499113;21;20239;-81
2024/04/08 13:13:57;;;;;;;3.08;0.80;;;18.80;60.00;;;;;;6499204;21;20213;-80
2024/04/08 13:16:23;;;;;;;3.22;0.60;;;18.80;59.90;;;;;;6345786;22;20227;-80
2024/04/08 13:18:49;;;;;;;2.40;0.80;;;18.80;60.00;;;;;;6388687;22;20553;-81
2024/04/08 13:21:16;;;;;;;2.60;0.70;;;18.70;60.00;;;;;;6346738;22;20224;-81
2024/04/08 13:23:42;;;;;;;4.30;0.80;;;18.80;60.10;;;;;;6389958;22;20224;-81
2024/04/08 13:26:09;;;;;;;0.82;0.60;;;18.80;60.20;;;;;;6388450;22;20650;-81
2024/04/08 13:28:36;;;;;;;1.65;0.88;;;18.80;60.40;;;;;;6386107;22;20217;-81
2024/04/08 13:31:09;;;;;;;2.22;0.60;;;18.80;60.50;;;;;;6387847;22;20316;-81
2024/04/08 13:33:35;;;;;;;7.72;1.02;;;18.70;60.50;;;;;;6345904;22;20242;-81
2024/04/08 13:36:02;;;;;;;2.40;0.90;;;18.80;60.50;;;;;;6387703;22;20688;-82
2024/04/08 13:38:27;;;;;;;1.83;0.50;;;18.80;60.30;;;;;;6388747;22;20224;-81
2024/04/08 13:40:53;;;;;;;4.55;0.80;;;18.90;60.10;;;;;;6387569;22;20323;-82
2024/04/08 13:43:19;;;;;;;2.10;0.80;;;18.80;59.90;;;;;;6384836;22;20228;-81
2024/04/08 13:45:48;;;;;;;1.55;0.70;;;18.90;59.90;;;;;;6383599;22;20220;-82
2024/04/08 13:48:14;;;;;;;1.50;0.70;;;18.90;59.70;;;;;;6327589;22;20679;-83
2024/04/08 13:50:42;;;;;;;1.92;0.70;;;18.90;59.80;;;;;;6384905;22;20224;-81
2024/04/08 13:53:08;;;;;;;1.38;0.80;;;19.00;59.70;;;;;;6384026;22;20246;-82
2024/04/08 13:55:35;;;;;;;2.13;0.70;;;18.90;59.90;;;;;;6383332;22;20676;-82
2024/04/08 13:58:00;;;;;;;1.42;0.80;;;18.90;59.90;;;;;;6384349;22;20217;-82
2024/04/08 14:00:26;;;;;;;1.38;0.70;;;18.90;60.00;;;;;;6384141;22;20259;-81
2024/04/08 14:02:52;;;;;;;1.42;0.57;;;19.00;60.00;;;;;;6425912;22;20267;-82
2024/04/08 14:05:18;;;;;;;2.78;0.52;;;19.00;59.90;;;;;;6343946;22;20754;-82
2024/04/08 14:07:43;;;;;;;2.35;0.60;;;19.00;59.80;;;;;;6385545;22;20274;-82
2024/04/08 14:10:12;;;;;;;3.38;0.85;;;18.90;59.90;;;;;;6383729;22;20216;-82
2024/04/08 14:12:40;;;;;;;1.27;0.60;;;18.90;60.00;;;;;;6342972;22;20706;-82
2024/04/08 14:15:08;;;;;;;1.88;0.47;;;18.90;60.10;;;;;;6342825;22;20684;-82
2024/04/08 14:17:34;;;;;;;1.27;0.65;;;18.80;59.90;;;;;;6425589;22;20216;-82
2024/04/08 14:20:04;;;;;;;4.78;0.73;;;18.90;60.20;;;;;;6514203;21;20213;-82
2024/04/08 14:22:30;;;;;;;1.88;0.80;;;18.90;60.30;;;;;;6496096;21;20259;-81
2024/04/08 14:24:55;;;;;;;0.82;0.60;;;18.80;60.40;;;;;;6583457;21;20213;-81
2024/04/08 14:27:21;;;;;;;1.50;0.80;;;18.80;60.60;;;;;;6494681;21;20221;-82
2024/04/08 14:29:48;;;;;;;1.73;0.68;;;18.70;60.70;;;;;;6494312;21;20257;-82
2024/04/08 14:32:14;;;;;;;1.58;0.60;;;18.80;60.80;;;;;;6494601;21;20322;-82
2024/04/08 14:34:43;;;;;;;0.40;0.40;;;18.80;60.80;;;;;;6493742;21;20584;-82
2024/04/08 14:37:10;;;;;;;0.75;0.60;;;18.80;60.70;;;;;;6496019;21;20209;-82
2024/04/08 14:39:36;;;;;;;1.58;0.73;;;18.80;60.50;;;;;;6497174;21;20217;-81
2024/04/08 14:42:02;;;;;;;0.77;0.77;;;18.80;60.50;;;;;;6497041;21;20259;-83
2024/04/08 14:44:27;;;;;;;1.67;0.60;;;18.80;60.60;;;;;;6455956;21;20228;-83